Terminal Aerodrome Forecast
Issued by NWS

Home | Current Version | Previous Version | Graphics & Text | Print | Product List | Glossary On
Versions: 1 2 3 4 5 6 7 8 9 10 11 12 13 14 15
948
FTUS43 KBIS 241726
TAFJMS
TAF
KJMS 241726Z 2418/2518 18015G23KT P6SM FEW090 SCT250
     FM250400 15009KT P6SM FEW100 SCT250
     FM250900 11007KT P6SM FEW100 SCT200
     FM251400 03006KT P6SM SCT200
     FM251600 36006KT P6SM SCT200=

USA.gov is the U.S. government's official web portal to all federal, state and local government web resources and services.